createdAt,value
2019-05-01T01:35:02.883Z,56.60
2019-05-01T02:52:20.062Z,56.80
2019-05-01T02:55:25.967Z,56.80
2019-05-01T02:58:17.640Z,56.20
2019-05-01T03:01:08.927Z,56.00
2019-05-01T03:04:00.899Z,57.00
2019-05-01T03:06:52.472Z,56.20
2019-05-01T03:09:44.555Z,56.90
2019-05-01T03:12:36.843Z,56.60
2019-05-01T03:15:29.379Z,56.70
2019-05-01T03:18:32.353Z,56.80
2019-05-01T03:21:51.133Z,56.30
2019-05-01T03:24:43.677Z,57.00
2019-05-01T03:27:35.047Z,57.30
2019-05-01T03:30:26.330Z,57.90
2019-05-01T03:33:17.617Z,57.00
2019-05-01T03:36:09.244Z,57.00
2019-05-01T03:39:00.778Z,57.20
2019-05-01T03:41:51.906Z,57.60
2019-05-01T03:44:43.153Z,58.00
2019-05-01T03:47:34.836Z,58.80
2019-05-01T03:50:26.681Z,58.10
2019-05-01T03:53:18.422Z,58.10
2019-05-01T03:56:09.941Z,60.40
2019-05-01T03:59:01.822Z,59.90
2019-05-01T04:02:02.523Z,59.80
2019-05-01T04:04:53.785Z,60.60
2019-05-01T04:07:47.054Z,61.00
2019-05-01T04:10:38.491Z,60.80
2019-05-01T04:13:30.145Z,59.40
2019-05-01T04:16:21.694Z,59.10
2019-05-01T04:19:14.182Z,58.70
2019-05-01T04:22:11.538Z,58.90
2019-05-01T04:25:03.077Z,59.10
2019-05-01T04:27:58.736Z,59.00
2019-05-01T04:31:02.426Z,59.00
2019-05-01T04:33:59.009Z,58.80
2019-05-01T04:36:53.203Z,58.60
2019-05-01T04:39:44.620Z,58.50
2019-05-01T04:42:37.563Z,58.30
2019-05-01T04:45:29.055Z,58.20
2019-05-01T04:48:20.809Z,58.10
2019-05-01T04:51:13.999Z,58.20
2019-05-01T04:54:05.945Z,58.10
2019-05-01T04:57:00.157Z,58.20
2019-05-01T04:59:53.498Z,58.30
2019-05-01T05:03:03.859Z,58.20
2019-05-01T05:05:43.447Z,58.70
2019-05-01T05:08:34.709Z,58.10
2019-05-01T05:11:28.690Z,58.00
2019-05-01T05:14:23.959Z,58.00
2019-05-01T05:17:19.486Z,58.00
2019-05-01T05:20:10.636Z,57.60
2019-05-01T05:23:02.534Z,57.40
2019-05-01T05:25:54.291Z,56.80
2019-05-01T05:28:46.197Z,57.00
2019-05-01T05:31:37.399Z,57.10
2019-05-01T05:34:29.369Z,57.30
2019-05-01T05:37:26.110Z,56.30
2019-05-01T05:40:18.747Z,56.60
2019-05-01T05:43:10.716Z,56.90
2019-05-01T05:46:02.379Z,57.10
2019-05-01T05:49:23.408Z,57.10
2019-05-01T05:52:28.907Z,57.10
2019-05-01T05:55:34.663Z,57.10
2019-05-01T05:58:30.812Z,56.90
2019-05-01T06:01:42.213Z,57.00
2019-05-01T06:05:01.046Z,57.00
2019-05-01T06:08:17.882Z,57.10
2019-05-01T06:11:33.914Z,56.70
2019-05-01T06:15:02.390Z,57.50
2019-05-01T06:18:05.936Z,56.90
2019-05-01T06:21:05.876Z,56.60
2019-05-01T06:24:06.616Z,56.10
2019-05-01T06:26:57.265Z,54.70
2019-05-01T06:29:48.672Z,53.50
2019-05-01T06:32:40.441Z,52.30
2019-05-01T06:35:37.731Z,51.20
2019-05-01T06:38:27.214Z,50.90
2019-05-01T06:41:19.345Z,50.10
2019-05-01T06:44:18.732Z,50.10
2019-05-01T06:47:25.445Z,50.00
2019-05-01T06:50:37.133Z,49.90
2019-05-01T06:53:26.409Z,49.70
2019-05-01T06:56:18.016Z,49.30
2019-05-01T06:59:09.822Z,49.20
2019-05-01T07:02:02.421Z,48.90
2019-05-01T07:04:59.687Z,48.70
2019-05-01T07:07:53.255Z,49.10
2019-05-01T07:10:46.850Z,49.00
2019-05-01T07:13:55.901Z,49.20
2019-05-01T07:16:51.524Z,50.00
2019-05-01T07:20:11.883Z,50.10
2019-05-01T07:36:55.090Z,49.80
2019-05-01T07:39:51.738Z,50.00
2019-05-01T07:42:49.427Z,49.60
2019-05-01T07:46:02.205Z,49.50
2019-05-01T07:48:56.795Z,49.00
2019-05-01T07:51:55.875Z,49.10
2019-05-01T07:54:51.268Z,49.40
2019-05-01T07:57:45.531Z,50.40
2019-05-01T08:00:50.213Z,49.80
2019-05-01T08:03:44.785Z,50.20
2019-05-01T08:06:40.072Z,50.20
2019-05-01T08:09:35.654Z,50.70
2019-05-01T08:12:40.541Z,51.10
2019-05-01T08:16:02.139Z,51.70
2019-05-01T08:19:17.870Z,51.90
2019-05-01T08:22:37.073Z,52.30
2019-05-01T08:25:41.233Z,52.50
2019-05-01T08:28:58.216Z,52.60
2019-05-01T08:32:28.680Z,53.20
2019-05-01T08:35:26.040Z,52.70
2019-05-01T08:38:22.772Z,53.20
2019-05-01T08:41:18.730Z,53.10
2019-05-01T08:44:20.376Z,53.30
2019-05-01T08:47:27.783Z,53.40
2019-05-01T08:50:24.807Z,53.50
2019-05-01T08:53:23.342Z,53.90
2019-05-01T08:56:21.913Z,53.70
2019-05-01T08:59:12.277Z,54.30
2019-05-01T09:02:09.330Z,54.60
2019-05-01T09:05:02.644Z,54.50
2019-05-01T09:07:55.936Z,54.50
2019-05-01T09:10:45.494Z,55.40
2019-05-01T09:13:37.393Z,54.30
2019-05-01T09:16:30.234Z,54.50
2019-05-01T09:19:22.078Z,54.50
2019-05-01T09:22:14.017Z,53.00
2019-05-01T09:25:05.641Z,53.10
2019-05-01T09:28:06.049Z,53.20
2019-05-01T09:31:02.169Z,53.30
2019-05-01T09:33:52.586Z,53.30
2019-05-01T09:36:44.679Z,53.40
2019-05-01T09:39:36.934Z,53.20
2019-05-01T09:42:28.397Z,53.30
2019-05-01T09:45:19.774Z,53.30
2019-05-01T09:48:11.606Z,53.00
2019-05-01T09:51:32.976Z,53.00
2019-05-01T09:54:47.896Z,52.50
2019-05-01T09:57:41.515Z,51.50
2019-05-01T10:00:32.940Z,51.10
2019-05-01T10:03:23.871Z,51.30
2019-05-01T10:06:17.137Z,51.90
2019-05-01T10:09:12.067Z,52.30
2019-05-01T10:12:02.825Z,52.60
2019-05-01T10:14:54.490Z,52.60
2019-05-01T10:17:47.386Z,52.80
2019-05-01T10:20:39.644Z,52.80
2019-05-01T10:23:31.999Z,53.60
2019-05-01T10:26:25.699Z,52.90
2019-05-01T10:29:41.628Z,53.20
2019-05-01T10:32:37.894Z,52.70
2019-05-01T10:35:53.462Z,52.90
2019-05-01T10:38:46.906Z,52.80
2019-05-01T10:41:41.199Z,52.80
2019-05-01T10:44:32.314Z,53.60
2019-05-01T10:47:25.019Z,52.90
2019-05-01T10:50:16.452Z,53.00
2019-05-01T10:53:15.461Z,53.10
2019-05-01T10:56:06.924Z,53.20
2019-05-01T10:58:58.312Z,53.10
2019-05-01T11:02:00.729Z,52.90
2019-05-01T11:04:52.466Z,53.00
2019-05-01T11:07:46.124Z,52.80
2019-05-01T11:10:38.004Z,52.90
2019-05-01T11:13:29.442Z,52.90
2019-05-01T11:16:21.601Z,53.00
2019-05-01T11:19:14.803Z,53.00
2019-05-01T11:22:06.188Z,52.60
2019-05-01T11:24:58.372Z,52.70
2019-05-01T11:27:49.869Z,52.90
2019-05-01T11:30:47.371Z,53.80
2019-05-01T11:34:00.120Z,53.10
2019-05-01T11:37:18.795Z,53.20
2019-05-01T11:40:36.604Z,53.40
2019-05-01T11:43:29.100Z,53.60
2019-05-01T11:46:21.852Z,54.30
2019-05-01T11:49:33.151Z,53.60
2019-05-01T11:52:29.331Z,52.90
2019-05-01T11:55:20.873Z,52.90
2019-05-01T11:58:13.719Z,52.70
2019-05-01T12:01:09.859Z,52.70
2019-05-01T12:04:05.315Z,52.70
2019-05-01T12:06:59.988Z,52.10
2019-05-01T12:09:55.459Z,52.10
2019-05-01T12:12:49.197Z,52.20
2019-05-01T12:15:45.669Z,50.60
2019-05-01T12:18:36.863Z,50.20
2019-05-01T12:21:28.068Z,50.30
2019-05-01T12:24:20.959Z,50.30
2019-05-01T12:27:12.192Z,50.50
2019-05-01T12:30:03.332Z,50.40
2019-05-01T12:32:54.493Z,50.00
2019-05-01T12:35:47.140Z,50.20
2019-05-01T12:38:38.898Z,50.50
2019-05-01T12:41:41.351Z,50.70
2019-05-01T12:44:32.911Z,50.80
2019-05-01T12:47:39.655Z,51.10
2019-05-01T12:50:31.300Z,50.90
2019-05-01T12:53:26.778Z,50.90
2019-05-01T12:56:34.690Z,51.00
2019-05-01T12:59:25.792Z,50.90
2019-05-01T13:02:17.139Z,51.10
2019-05-01T13:05:08.115Z,51.20
2019-05-01T13:07:59.851Z,51.30
2019-05-01T13:10:54.138Z,51.30
2019-05-01T13:13:45.126Z,51.20
2019-05-01T13:16:36.377Z,51.10
2019-05-01T13:19:28.063Z,51.70
2019-05-01T13:22:19.133Z,51.80
2019-05-01T13:25:10.381Z,51.90
2019-05-01T13:28:13.152Z,51.80
2019-05-01T13:31:28.924Z,51.60
2019-05-01T13:34:20.721Z,51.40
2019-05-01T13:37:16.091Z,51.40
2019-05-01T13:40:11.088Z,51.20
2019-05-01T13:43:10.205Z,51.60
2019-05-01T13:46:05.271Z,51.80
2019-05-01T13:49:00.183Z,52.10
2019-05-01T13:51:54.933Z,52.20
2019-05-01T13:54:49.581Z,52.30
2019-05-01T13:57:40.535Z,52.50
2019-05-01T14:00:32.061Z,52.50
2019-05-01T14:03:23.371Z,52.60
2019-05-01T14:06:14.974Z,52.70
2019-05-01T14:09:08.448Z,53.00
2019-05-01T14:11:59.550Z,53.30
2019-05-01T14:14:51.124Z,53.40
2019-05-01T14:17:43.045Z,53.50
2019-05-01T14:21:01.289Z,53.90
2019-05-01T14:24:03.649Z,54.10
2019-05-01T14:26:55.145Z,54.40
2019-05-01T14:29:46.138Z,54.70
2019-05-01T14:32:37.752Z,54.80
2019-05-01T14:35:29.664Z,54.70
2019-05-01T14:38:21.369Z,54.60
2019-05-01T14:41:24.852Z,54.70
2019-05-01T14:44:36.783Z,55.00
2019-05-01T14:47:43.693Z,55.10
2019-05-01T14:50:44.931Z,55.10
2019-05-01T14:53:53.433Z,55.10
2019-05-01T14:57:03.183Z,55.60
2019-05-01T15:00:14.124Z,55.80
2019-05-01T15:03:18.926Z,56.00
2019-05-01T15:06:21.374Z,56.10
2019-05-01T15:09:31.450Z,56.30
2019-05-01T15:12:44.035Z,56.10
2019-05-01T15:16:01.980Z,56.40
2019-05-01T15:19:29.498Z,56.50
2019-05-01T15:22:41.343Z,56.70
2019-05-01T15:25:44.004Z,56.70
2019-05-01T15:28:50.480Z,56.60
2019-05-01T15:32:00.972Z,56.70
2019-05-01T15:35:03.537Z,56.80
2019-05-01T15:38:10.609Z,57.00
2019-05-01T15:41:32.975Z,56.90
2019-05-01T15:44:41.247Z,56.80
2019-05-01T15:47:37.986Z,57.10
2019-05-01T15:50:44.740Z,57.30
2019-05-01T15:53:42.820Z,57.40
2019-05-01T15:56:51.261Z,58.10
2019-05-01T15:59:50.480Z,57.90
2019-05-01T16:02:45.630Z,58.40
2019-05-01T16:05:44.826Z,58.20
2019-05-01T16:08:43.399Z,58.20
2019-05-01T16:11:57.564Z,58.00
2019-05-01T16:14:53.498Z,58.40
2019-05-01T16:17:51.849Z,58.20
2019-05-01T16:20:56.703Z,58.20
2019-05-01T16:23:57.889Z,58.30
2019-05-01T16:26:52.326Z,58.20
2019-05-01T16:29:43.088Z,58.00
2019-05-01T16:32:34.632Z,58.40
2019-05-01T16:35:25.361Z,58.50
2019-05-01T16:38:26.579Z,58.50
2019-05-01T16:41:18.535Z,58.70
2019-05-01T16:44:10.082Z,58.20
2019-05-01T16:47:05.480Z,58.30
2019-05-01T16:49:56.766Z,58.10
2019-05-01T16:52:48.051Z,58.20
2019-05-01T16:55:39.107Z,58.40
2019-05-01T16:58:30.509Z,58.20
2019-05-01T17:01:39.987Z,58.30
2019-05-01T17:04:52.508Z,57.80
2019-05-01T17:08:35.027Z,57.70
2019-05-01T17:11:25.333Z,58.20
2019-05-01T17:14:18.170Z,57.90
2019-05-01T17:17:15.432Z,57.70
2019-05-01T17:20:07.500Z,57.80
2019-05-01T17:22:58.647Z,57.60
2019-05-01T17:25:49.844Z,57.30
2019-05-01T17:28:40.805Z,57.30
2019-05-01T17:31:32.769Z,57.30
2019-05-01T17:34:25.764Z,57.10
2019-05-01T17:37:16.968Z,56.90
2019-05-01T17:40:09.173Z,57.10
2019-05-01T17:43:20.919Z,56.90
2019-05-01T17:46:36.834Z,57.00
2019-05-01T17:49:33.895Z,56.90
2019-05-01T17:52:44.440Z,56.70
2019-05-01T17:55:54.485Z,56.80
2019-05-01T17:59:10.687Z,56.70
2019-05-01T18:02:32.895Z,57.00
2019-05-01T18:14:39.727Z,56.20
2019-05-01T18:18:00.190Z,57.00
2019-05-01T18:21:30.964Z,56.80
2019-05-01T18:25:01.234Z,56.80
2019-05-01T18:28:29.821Z,56.90
2019-05-01T18:31:38.412Z,56.90
2019-05-01T18:34:53.157Z,57.20
2019-05-01T18:38:01.137Z,57.20
2019-05-01T18:40:56.037Z,57.10
2019-05-01T18:43:47.007Z,57.10
2019-05-01T18:46:40.536Z,57.40
2019-05-01T18:49:31.714Z,57.50
2019-05-01T18:52:23.487Z,57.40
2019-05-01T18:55:14.996Z,57.10
2019-05-01T18:58:08.373Z,57.00
2019-05-01T19:01:10.869Z,56.80
2019-05-01T19:04:03.493Z,56.70
2019-05-01T19:06:55.268Z,56.60
2019-05-01T19:09:56.551Z,56.40
2019-05-01T19:12:49.107Z,55.90
2019-05-01T19:15:40.376Z,55.30
2019-05-01T19:18:31.651Z,55.00
2019-05-01T19:21:24.011Z,54.90
2019-05-01T19:24:15.609Z,54.60
2019-05-01T19:27:07.633Z,54.60
2019-05-01T19:29:59.132Z,54.70
2019-05-01T19:32:53.036Z,54.70
2019-05-01T19:35:46.415Z,54.50
2019-05-01T19:38:41.410Z,54.60
2019-05-01T19:41:43.620Z,54.70
2019-05-01T19:44:35.428Z,54.50
2019-05-01T19:47:27.513Z,54.50
2019-05-01T19:50:23.230Z,54.70
2019-05-01T19:53:15.912Z,54.70
2019-05-01T19:56:08.069Z,54.70
2019-05-01T19:58:59.617Z,55.70
2019-05-01T20:01:51.253Z,55.50
2019-05-01T20:04:45.291Z,55.60
2019-05-01T20:07:34.544Z,55.70
2019-05-01T20:10:26.397Z,55.70
2019-05-01T20:13:20.048Z,55.10
2019-05-01T20:16:11.778Z,55.40
2019-05-01T20:19:02.806Z,55.40
2019-05-01T20:21:54.358Z,55.50
2019-05-01T20:24:45.880Z,55.60
2019-05-01T20:27:39.527Z,55.70
2019-05-01T20:30:29.837Z,55.70
2019-05-01T20:33:21.098Z,55.70
2019-05-01T20:36:12.377Z,55.80
2019-05-01T20:39:05.167Z,55.90
2019-05-01T20:41:56.516Z,56.00
2019-05-01T20:44:48.024Z,56.10
2019-05-01T20:47:45.135Z,56.20
2019-05-01T20:50:31.657Z,56.10
2019-05-01T20:53:22.793Z,56.00
2019-05-01T20:56:32.122Z,56.20
2019-05-01T21:02:24.326Z,56.20
2019-05-01T21:05:26.960Z,56.40
2019-05-01T21:08:34.287Z,56.40
2019-05-01T21:11:33.641Z,56.40
2019-05-01T21:14:30.418Z,56.50
2019-05-01T21:17:25.763Z,56.50
2019-05-01T21:20:21.090Z,56.50
2019-05-01T21:23:15.913Z,56.50
2019-05-01T21:26:10.619Z,56.50
2019-05-01T21:29:05.325Z,57.20
2019-05-01T21:32:00.812Z,56.60
2019-05-01T21:34:55.449Z,56.70
2019-05-01T21:37:50.426Z,56.70
2019-05-01T21:40:44.017Z,56.90
2019-05-01T21:43:39.440Z,56.80
2019-05-01T21:46:34.069Z,56.80
2019-05-01T21:49:28.815Z,57.00
2019-05-01T21:52:26.847Z,56.90
2019-05-01T21:55:20.301Z,56.90
2019-05-01T21:58:15.746Z,57.00
2019-05-01T22:01:11.515Z,57.10
2019-05-01T22:04:06.117Z,57.10
2019-05-01T22:07:01.143Z,57.20
2019-05-01T22:09:56.159Z,57.10
2019-05-01T22:12:51.367Z,57.20
2019-05-01T22:15:52.940Z,57.10
2019-05-01T22:19:03.931Z,57.20
2019-05-01T22:22:20.323Z,57.10
2019-05-01T22:25:22.859Z,57.10
2019-05-01T22:28:40.346Z,57.50
2019-05-01T22:31:44.771Z,57.10
2019-05-01T22:34:47.197Z,57.10
2019-05-01T22:37:42.631Z,57.00
2019-05-01T22:41:06.149Z,57.10
2019-05-01T22:43:53.887Z,57.30
2019-05-01T22:46:48.863Z,57.10
2019-05-01T22:49:45.817Z,57.10
2019-05-01T22:52:40.772Z,57.10
2019-05-01T22:55:35.906Z,57.10
2019-05-01T22:58:30.428Z,57.20
2019-05-01T23:01:25.477Z,57.10
2019-05-01T23:04:20.302Z,57.20
2019-05-01T23:07:16.727Z,57.10
2019-05-01T23:10:12.679Z,57.10
2019-05-01T23:13:08.352Z,57.30
2019-05-01T23:16:03.560Z,57.40
2019-05-01T23:18:58.449Z,57.30
2019-05-01T23:21:53.297Z,57.30
2019-05-01T23:24:48.399Z,57.20
2019-05-01T23:27:43.732Z,57.30
2019-05-01T23:30:38.820Z,57.30
2019-05-01T23:33:34.130Z,57.50
2019-05-01T23:36:29.493Z,57.40
2019-05-01T23:39:24.521Z,57.30
2019-05-01T23:42:20.298Z,57.40
2019-05-01T23:45:15.845Z,57.40
2019-05-01T23:48:11.052Z,57.40
2019-05-01T23:51:05.766Z,57.50
2019-05-01T23:54:00.995Z,57.50
2019-05-01T23:56:55.864Z,57.50
2019-05-01T23:59:50.697Z,57.60
